sensor_id;sensor_type;location;lat;lon;timestamp;temperature;humidity
2973;DHT22;1496;51.404;7.232;2023-04-16T00:01:20;7.80;99.90
2973;DHT22;1496;51.404;7.232;2023-04-16T00:03:45;7.80;99.90
2973;DHT22;1496;51.404;7.232;2023-04-16T00:06:12;7.80;99.90
2973;DHT22;1496;51.404;7.232;2023-04-16T00:08:42;7.80;99.90
2973;DHT22;1496;51.404;7.232;2023-04-16T00:11:08;7.80;99.90
2973;DHT22;1496;51.404;7.232;2023-04-16T00:13:36;7.90;99.90
2973;DHT22;1496;51.404;7.232;2023-04-16T00:16:05;7.80;99.90
2973;DHT22;1496;51.404;7.232;2023-04-16T00:18:32;7.80;99.90
2973;DHT22;1496;51.404;7.232;2023-04-16T00:20:58;7.80;99.90
2973;DHT22;1496;51.404;7.232;2023-04-16T00:23:24;7.80;99.90
2973;DHT22;1496;51.404;7.232;2023-04-16T00:25:52;7.70;99.90
2973;DHT22;1496;51.404;7.232;2023-04-16T00:28:22;7.80;99.90
2973;DHT22;1496;51.404;7.232;2023-04-16T00:30:51;7.80;99.90
2973;DHT22;1496;51.404;7.232;2023-04-16T00:33:16;7.70;99.90
2973;DHT22;1496;51.404;7.232;2023-04-16T00:35:46;7.80;99.90
2973;DHT22;1496;51.404;7.232;2023-04-16T00:38:14;7.70;99.90
2973;DHT22;1496;51.404;7.232;2023-04-16T00:40:41;7.80;99.90
2973;DHT22;1496;51.404;7.232;2023-04-16T00:43:09;7.80;99.90
2973;DHT22;1496;51.404;7.232;2023-04-16T00:45:37;7.80;99.90
2973;DHT22;1496;51.404;7.232;2023-04-16T00:48:05;7.80;99.90
2973;DHT22;1496;51.404;7.232;2023-04-16T00:50:34;7.80;99.90
2973;DHT22;1496;51.404;7.232;2023-04-16T00:53:01;7.80;99.90
2973;DHT22;1496;51.404;7.232;2023-04-16T00:55:27;7.90;99.90
2973;DHT22;1496;51.404;7.232;2023-04-16T00:57:54;7.90;99.90
2973;DHT22;1496;51.404;7.232;2023-04-16T01:00:22;8.00;99.90
2973;DHT22;1496;51.404;7.232;2023-04-16T01:02:52;8.00;99.90
2973;DHT22;1496;51.404;7.232;2023-04-16T01:05:21;8.00;99.90
2973;DHT22;1496;51.404;7.232;2023-04-16T01:07:52;7.90;99.90
2973;DHT22;1496;51.404;7.232;2023-04-16T01:10:19;7.90;99.90
2973;DHT22;1496;51.404;7.232;2023-04-16T01:12:49;7.90;99.90
2973;DHT22;1496;51.404;7.232;2023-04-16T01:15:16;7.90;99.90
2973;DHT22;1496;51.404;7.232;2023-04-16T01:17:45;8.00;99.90
2973;DHT22;1496;51.404;7.232;2023-04-16T01:20:13;8.00;99.90
2973;DHT22;1496;51.404;7.232;2023-04-16T01:22:41;8.00;99.90
2973;DHT22;1496;51.404;7.232;2023-04-16T01:25:12;7.80;99.90
2973;DHT22;1496;51.404;7.232;2023-04-16T01:27:39;7.80;99.90
2973;DHT22;1496;51.404;7.232;2023-04-16T01:30:08;7.80;99.90
2973;DHT22;1496;51.404;7.232;2023-04-16T01:32:47;7.80;99.90
2973;DHT22;1496;51.404;7.232;2023-04-16T01:35:15;7.80;99.90
2973;DHT22;1496;51.404;7.232;2023-04-16T01:37:44;7.80;99.90
2973;DHT22;1496;51.404;7.232;2023-04-16T01:40:13;7.80;99.90
2973;DHT22;1496;51.404;7.232;2023-04-16T01:42:41;7.80;99.90
2973;DHT22;1496;51.404;7.232;2023-04-16T01:45:09;7.80;99.90
2973;DHT22;1496;51.404;7.232;2023-04-16T01:47:37;7.80;99.90
2973;DHT22;1496;51.404;7.232;2023-04-16T01:50:06;7.90;99.90
2973;DHT22;1496;51.404;7.232;2023-04-16T01:52:32;7.90;99.90
2973;DHT22;1496;51.404;7.232;2023-04-16T01:55:01;8.00;99.90
2973;DHT22;1496;51.404;7.232;2023-04-16T01:57:30;7.90;99.90
2973;DHT22;1496;51.404;7.232;2023-04-16T01:59:59;7.90;99.90
2973;DHT22;1496;51.404;7.232;2023-04-16T02:02:28;7.90;99.90
2973;DHT22;1496;51.404;7.232;2023-04-16T02:04:57;7.90;99.90
2973;DHT22;1496;51.404;7.232;2023-04-16T02:07:25;7.90;99.90
2973;DHT22;1496;51.404;7.232;2023-04-16T02:09:53;7.90;99.90
2973;DHT22;1496;51.404;7.232;2023-04-16T02:12:24;8.00;99.90
2973;DHT22;1496;51.404;7.232;2023-04-16T02:14:52;8.00;99.90
2973;DHT22;1496;51.404;7.232;2023-04-16T02:17:23;8.10;99.90
2973;DHT22;1496;51.404;7.232;2023-04-16T02:20:02;7.90;99.90
2973;DHT22;1496;51.404;7.232;2023-04-16T02:22:33;7.90;99.90
2973;DHT22;1496;51.404;7.232;2023-04-16T02:24:59;8.00;99.90
2973;DHT22;1496;51.404;7.232;2023-04-16T02:27:27;7.90;99.90
2973;DHT22;1496;51.404;7.232;2023-04-16T02:30:01;7.90;99.90
2973;DHT22;1496;51.404;7.232;2023-04-16T02:32:31;8.00;99.90
2973;DHT22;1496;51.404;7.232;2023-04-16T02:35:00;8.00;99.90
2973;DHT22;1496;51.404;7.232;2023-04-16T02:37:29;8.00;99.90
2973;DHT22;1496;51.404;7.232;2023-04-16T02:39:56;8.00;99.90
2973;DHT22;1496;51.404;7.232;2023-04-16T02:42:25;7.90;99.90
2973;DHT22;1496;51.404;7.232;2023-04-16T02:44:51;8.00;99.90
2973;DHT22;1496;51.404;7.232;2023-04-16T02:47:19;8.00;99.90
2973;DHT22;1496;51.404;7.232;2023-04-16T02:49:46;8.00;99.90
2973;DHT22;1496;51.404;7.232;2023-04-16T02:52:13;8.00;99.90
2973;DHT22;1496;51.404;7.232;2023-04-16T02:54:40;8.10;99.90
2973;DHT22;1496;51.404;7.232;2023-04-16T02:57:07;8.10;99.90
2973;DHT22;1496;51.404;7.232;2023-04-16T02:59:35;8.10;99.90
2973;DHT22;1496;51.404;7.232;2023-04-16T03:02:01;8.00;99.90
2973;DHT22;1496;51.404;7.232;2023-04-16T03:04:28;8.00;99.90
2973;DHT22;1496;51.404;7.232;2023-04-16T03:06:55;8.00;99.90
2973;DHT22;1496;51.404;7.232;2023-04-16T03:09:22;8.00;99.90
2973;DHT22;1496;51.404;7.232;2023-04-16T03:11:49;8.00;99.90
2973;DHT22;1496;51.404;7.232;2023-04-16T03:14:17;8.10;99.90
2973;DHT22;1496;51.404;7.232;2023-04-16T03:16:46;8.10;99.90
2973;DHT22;1496;51.404;7.232;2023-04-16T03:19:11;8.10;99.90
2973;DHT22;1496;51.404;7.232;2023-04-16T03:21:39;8.10;99.90
2973;DHT22;1496;51.404;7.232;2023-04-16T03:24:05;8.10;99.90
2973;DHT22;1496;51.404;7.232;2023-04-16T03:26:32;8.10;99.90
2973;DHT22;1496;51.404;7.232;2023-04-16T03:29:00;8.10;99.90
2973;DHT22;1496;51.404;7.232;2023-04-16T03:31:30;8.10;99.90
2973;DHT22;1496;51.404;7.232;2023-04-16T03:33:58;8.10;99.90
2973;DHT22;1496;51.404;7.232;2023-04-16T03:36:26;8.10;99.90
2973;DHT22;1496;51.404;7.232;2023-04-16T03:38:53;8.10;99.90
2973;DHT22;1496;51.404;7.232;2023-04-16T03:41:20;8.10;99.90
2973;DHT22;1496;51.404;7.232;2023-04-16T03:43:48;8.10;99.90
2973;DHT22;1496;51.404;7.232;2023-04-16T03:46:16;8.10;99.90
2973;DHT22;1496;51.404;7.232;2023-04-16T03:48:43;8.10;99.90
2973;DHT22;1496;51.404;7.232;2023-04-16T03:51:11;8.20;99.90
2973;DHT22;1496;51.404;7.232;2023-04-16T03:53:38;8.20;99.90
2973;DHT22;1496;51.404;7.232;2023-04-16T03:56:06;8.20;99.90
2973;DHT22;1496;51.404;7.232;2023-04-16T03:58:32;8.30;99.90
2973;DHT22;1496;51.404;7.232;2023-04-16T04:01:00;8.20;99.90
2973;DHT22;1496;51.404;7.232;2023-04-16T04:03:27;8.20;99.90
2973;DHT22;1496;51.404;7.232;2023-04-16T04:05:54;8.10;99.90
2973;DHT22;1496;51.404;7.232;2023-04-16T04:08:26;8.20;99.90
2973;DHT22;1496;51.404;7.232;2023-04-16T04:10:54;8.20;99.90
2973;DHT22;1496;51.404;7.232;2023-04-16T04:13:21;8.20;99.90
2973;DHT22;1496;51.404;7.232;2023-04-16T04:15:50;8.20;99.90
2973;DHT22;1496;51.404;7.232;2023-04-16T04:18:20;8.20;99.90
2973;DHT22;1496;51.404;7.232;2023-04-16T04:20:47;8.20;99.90
2973;DHT22;1496;51.404;7.232;2023-04-16T04:23:16;8.10;99.90
2973;DHT22;1496;51.404;7.232;2023-04-16T04:25:44;8.20;99.90
2973;DHT22;1496;51.404;7.232;2023-04-16T04:28:12;8.20;99.90
2973;DHT22;1496;51.404;7.232;2023-04-16T04:30:39;8.20;99.90
2973;DHT22;1496;51.404;7.232;2023-04-16T04:33:05;8.30;99.90
2973;DHT22;1496;51.404;7.232;2023-04-16T04:35:33;8.20;99.90
2973;DHT22;1496;51.404;7.232;2023-04-16T04:38:04;8.20;99.90
2973;DHT22;1496;51.404;7.232;2023-04-16T04:40:31;8.20;99.90
2973;DHT22;1496;51.404;7.232;2023-04-16T04:43:00;8.30;99.90
2973;DHT22;1496;51.404;7.232;2023-04-16T04:45:27;8.30;99.90
2973;DHT22;1496;51.404;7.232;2023-04-16T04:47:54;8.30;99.90
2973;DHT22;1496;51.404;7.232;2023-04-16T04:50:22;8.30;99.90
2973;DHT22;1496;51.404;7.232;2023-04-16T04:52:48;8.40;99.90
2973;DHT22;1496;51.404;7.232;2023-04-16T04:55:16;8.30;99.90
2973;DHT22;1496;51.404;7.232;2023-04-16T04:57:42;8.30;99.90
2973;DHT22;1496;51.404;7.232;2023-04-16T05:00:11;8.30;99.90
2973;DHT22;1496;51.404;7.232;2023-04-16T05:02:53;8.40;99.90
2973;DHT22;1496;51.404;7.232;2023-04-16T05:05:20;8.30;99.90
2973;DHT22;1496;51.404;7.232;2023-04-16T05:07:48;8.40;99.90
2973;DHT22;1496;51.404;7.232;2023-04-16T05:10:15;8.40;99.90
2973;DHT22;1496;51.404;7.232;2023-04-16T05:12:42;8.50;99.90
2973;DHT22;1496;51.404;7.232;2023-04-16T05:15:09;8.40;99.90
2973;DHT22;1496;51.404;7.232;2023-04-16T05:17:36;8.40;99.90
2973;DHT22;1496;51.404;7.232;2023-04-16T05:20:02;8.40;99.90
2973;DHT22;1496;51.404;7.232;2023-04-16T05:22:32;8.30;99.90
2973;DHT22;1496;51.404;7.232;2023-04-16T05:25:02;8.30;99.90
2973;DHT22;1496;51.404;7.232;2023-04-16T05:27:31;8.40;99.90
2973;DHT22;1496;51.404;7.232;2023-04-16T05:29:57;8.30;99.90
2973;DHT22;1496;51.404;7.232;2023-04-16T05:32:25;8.40;99.90
2973;DHT22;1496;51.404;7.232;2023-04-16T05:34:52;8.40;99.90
2973;DHT22;1496;51.404;7.232;2023-04-16T05:37:19;8.40;99.90
2973;DHT22;1496;51.404;7.232;2023-04-16T05:39:46;8.40;99.90
2973;DHT22;1496;51.404;7.232;2023-04-16T05:42:13;8.50;99.90
2973;DHT22;1496;51.404;7.232;2023-04-16T05:44:40;8.40;99.90
2973;DHT22;1496;51.404;7.232;2023-04-16T05:47:07;8.40;99.90
2973;DHT22;1496;51.404;7.232;2023-04-16T05:49:37;8.50;99.90
2973;DHT22;1496;51.404;7.232;2023-04-16T05:52:05;8.40;99.90
2973;DHT22;1496;51.404;7.232;2023-04-16T05:54:34;8.50;99.90
2973;DHT22;1496;51.404;7.232;2023-04-16T05:57:00;8.40;99.90
2973;DHT22;1496;51.404;7.232;2023-04-16T05:59:29;8.40;99.90
2973;DHT22;1496;51.404;7.232;2023-04-16T06:02:29;8.40;99.90
2973;DHT22;1496;51.404;7.232;2023-04-16T06:04:58;8.40;99.90
2973;DHT22;1496;51.404;7.232;2023-04-16T06:07:26;8.40;99.90
2973;DHT22;1496;51.404;7.232;2023-04-16T06:09:53;8.40;99.90
2973;DHT22;1496;51.404;7.232;2023-04-16T06:12:19;8.50;99.90
2973;DHT22;1496;51.404;7.232;2023-04-16T06:14:46;8.50;99.90
2973;DHT22;1496;51.404;7.232;2023-04-16T06:17:13;8.50;99.90
2973;DHT22;1496;51.404;7.232;2023-04-16T06:19:40;8.50;99.90
2973;DHT22;1496;51.404;7.232;2023-04-16T06:22:07;8.50;99.90
2973;DHT22;1496;51.404;7.232;2023-04-16T06:24:34;8.50;99.90
2973;DHT22;1496;51.404;7.232;2023-04-16T06:27:01;8.50;99.90
2973;DHT22;1496;51.404;7.232;2023-04-16T06:29:28;8.50;99.90
2973;DHT22;1496;51.404;7.232;2023-04-16T06:31:55;8.50;99.90
2973;DHT22;1496;51.404;7.232;2023-04-16T06:34:24;8.50;99.90
2973;DHT22;1496;51.404;7.232;2023-04-16T06:36:50;8.50;99.90
2973;DHT22;1496;51.404;7.232;2023-04-16T06:39:18;8.50;99.90
2973;DHT22;1496;51.404;7.232;2023-04-16T06:41:47;8.50;99.90
2973;DHT22;1496;51.404;7.232;2023-04-16T06:44:14;8.60;99.90
2973;DHT22;1496;51.404;7.232;2023-04-16T06:46:41;8.60;99.90
2973;DHT22;1496;51.404;7.232;2023-04-16T06:49:09;8.60;99.90
2973;DHT22;1496;51.404;7.232;2023-04-16T06:51:35;8.50;99.90
2973;DHT22;1496;51.404;7.232;2023-04-16T06:54:02;8.60;99.90
2973;DHT22;1496;51.404;7.232;2023-04-16T06:56:28;8.60;99.90
2973;DHT22;1496;51.404;7.232;2023-04-16T06:58:54;8.60;99.90
2973;DHT22;1496;51.404;7.232;2023-04-16T07:01:22;8.70;99.90
2973;DHT22;1496;51.404;7.232;2023-04-16T07:03:49;8.70;99.90
2973;DHT22;1496;51.404;7.232;2023-04-16T07:06:16;8.70;99.90
2973;DHT22;1496;51.404;7.232;2023-04-16T07:08:43;8.70;99.90
2973;DHT22;1496;51.404;7.232;2023-04-16T07:11:10;8.80;99.90
2973;DHT22;1496;51.404;7.232;2023-04-16T07:13:37;8.80;99.90
2973;DHT22;1496;51.404;7.232;2023-04-16T07:16:04;8.80;99.90
2973;DHT22;1496;51.404;7.232;2023-04-16T07:18:32;8.80;99.90
2973;DHT22;1496;51.404;7.232;2023-04-16T07:20:58;8.80;99.90
2973;DHT22;1496;51.404;7.232;2023-04-16T07:23:25;8.80;99.90
2973;DHT22;1496;51.404;7.232;2023-04-16T07:25:51;8.80;99.90
2973;DHT22;1496;51.404;7.232;2023-04-16T07:28:17;8.90;99.90
2973;DHT22;1496;51.404;7.232;2023-04-16T07:30:44;8.90;99.90
2973;DHT22;1496;51.404;7.232;2023-04-16T07:33:11;9.00;99.90
2973;DHT22;1496;51.404;7.232;2023-04-16T07:35:38;9.10;99.90
2973;DHT22;1496;51.404;7.232;2023-04-16T07:38:04;9.10;99.90
2973;DHT22;1496;51.404;7.232;2023-04-16T07:40:32;9.10;99.90
2973;DHT22;1496;51.404;7.232;2023-04-16T07:42:58;9.00;99.90
2973;DHT22;1496;51.404;7.232;2023-04-16T07:45:25;9.00;99.90
2973;DHT22;1496;51.404;7.232;2023-04-16T07:47:52;8.90;99.90
2973;DHT22;1496;51.404;7.232;2023-04-16T07:50:20;8.90;99.90
2973;DHT22;1496;51.404;7.232;2023-04-16T07:52:46;8.90;99.90
2973;DHT22;1496;51.404;7.232;2023-04-16T07:55:13;8.80;99.90
2973;DHT22;1496;51.404;7.232;2023-04-16T07:57:40;8.80;99.90
2973;DHT22;1496;51.404;7.232;2023-04-16T08:00:08;8.80;99.90
2973;DHT22;1496;51.404;7.232;2023-04-16T08:02:42;8.80;99.90
2973;DHT22;1496;51.404;7.232;2023-04-16T08:05:09;8.90;99.90
2973;DHT22;1496;51.404;7.232;2023-04-16T08:07:38;8.90;99.90
2973;DHT22;1496;51.404;7.232;2023-04-16T08:10:04;8.90;99.90
2973;DHT22;1496;51.404;7.232;2023-04-16T08:12:32;9.00;99.90
2973;DHT22;1496;51.404;7.232;2023-04-16T08:14:59;9.00;99.90
2973;DHT22;1496;51.404;7.232;2023-04-16T08:17:27;9.10;99.90
2973;DHT22;1496;51.404;7.232;2023-04-16T08:19:55;9.10;99.90
2973;DHT22;1496;51.404;7.232;2023-04-16T08:22:21;9.10;99.90
2973;DHT22;1496;51.404;7.232;2023-04-16T08:24:48;9.10;99.90
2973;DHT22;1496;51.404;7.232;2023-04-16T08:27:15;9.20;99.90
2973;DHT22;1496;51.404;7.232;2023-04-16T08:29:42;9.30;99.90
2973;DHT22;1496;51.404;7.232;2023-04-16T08:32:08;9.20;99.90
2973;DHT22;1496;51.404;7.232;2023-04-16T08:34:36;9.30;99.90
2973;DHT22;1496;51.404;7.232;2023-04-16T08:37:03;9.20;99.90
2973;DHT22;1496;51.404;7.232;2023-04-16T08:39:29;9.30;99.90
2973;DHT22;1496;51.404;7.232;2023-04-16T08:41:57;9.30;99.90
2973;DHT22;1496;51.404;7.232;2023-04-16T08:44:30;9.40;99.90
2973;DHT22;1496;51.404;7.232;2023-04-16T08:46:59;9.40;99.90
2973;DHT22;1496;51.404;7.232;2023-04-16T08:49:27;9.40;99.90
2973;DHT22;1496;51.404;7.232;2023-04-16T08:51:55;9.30;99.90
2973;DHT22;1496;51.404;7.232;2023-04-16T08:54:36;9.30;99.90
2973;DHT22;1496;51.404;7.232;2023-04-16T08:57:06;9.40;99.90
2973;DHT22;1496;51.404;7.232;2023-04-16T08:59:35;9.40;99.90
2973;DHT22;1496;51.404;7.232;2023-04-16T09:02:03;9.30;99.90
2973;DHT22;1496;51.404;7.232;2023-04-16T09:04:33;9.40;99.90
2973;DHT22;1496;51.404;7.232;2023-04-16T09:07:03;9.50;99.90
2973;DHT22;1496;51.404;7.232;2023-04-16T09:09:34;9.50;99.90
2973;DHT22;1496;51.404;7.232;2023-04-16T09:12:07;9.60;99.90
2973;DHT22;1496;51.404;7.232;2023-04-16T09:14:33;9.50;99.90
2973;DHT22;1496;51.404;7.232;2023-04-16T09:17:01;9.60;99.90
2973;DHT22;1496;51.404;7.232;2023-04-16T09:19:30;9.50;99.90
2973;DHT22;1496;51.404;7.232;2023-04-16T09:21:57;9.60;99.90
2973;DHT22;1496;51.404;7.232;2023-04-16T09:24:24;9.70;99.90
2973;DHT22;1496;51.404;7.232;2023-04-16T09:26:53;9.80;99.90
2973;DHT22;1496;51.404;7.232;2023-04-16T09:29:42;9.80;99.90
2973;DHT22;1496;51.404;7.232;2023-04-16T09:32:24;9.80;99.90
2973;DHT22;1496;51.404;7.232;2023-04-16T09:35:01;9.80;99.90
2973;DHT22;1496;51.404;7.232;2023-04-16T09:37:30;9.80;99.90
2973;DHT22;1496;51.404;7.232;2023-04-16T09:39:58;9.80;99.90
2973;DHT22;1496;51.404;7.232;2023-04-16T09:42:29;9.80;99.90
2973;DHT22;1496;51.404;7.232;2023-04-16T09:44:57;9.70;99.90
2973;DHT22;1496;51.404;7.232;2023-04-16T09:47:43;9.70;99.90
2973;DHT22;1496;51.404;7.232;2023-04-16T09:50:18;9.70;99.90
2973;DHT22;1496;51.404;7.232;2023-04-16T09:52:49;9.70;99.90
2973;DHT22;1496;51.404;7.232;2023-04-16T09:55:21;9.80;99.90
2973;DHT22;1496;51.404;7.232;2023-04-16T09:57:58;9.80;99.90
2973;DHT22;1496;51.404;7.232;2023-04-16T10:00:28;9.90;99.90
2973;DHT22;1496;51.404;7.232;2023-04-16T10:03:05;9.90;99.90
2973;DHT22;1496;51.404;7.232;2023-04-16T10:05:31;9.90;99.90
2973;DHT22;1496;51.404;7.232;2023-04-16T10:08:00;10.00;99.90
2973;DHT22;1496;51.404;7.232;2023-04-16T10:10:28;10.00;99.90
2973;DHT22;1496;51.404;7.232;2023-04-16T10:12:56;10.10;99.90
2973;DHT22;1496;51.404;7.232;2023-04-16T10:15:23;10.00;99.90
2973;DHT22;1496;51.404;7.232;2023-04-16T10:17:50;10.00;99.90
2973;DHT22;1496;51.404;7.232;2023-04-16T10:20:18;10.00;93.30
2973;DHT22;1496;51.404;7.232;2023-04-16T10:22:47;10.00;99.90
2973;DHT22;1496;51.404;7.232;2023-04-16T10:25:16;10.10;99.90
2973;DHT22;1496;51.404;7.232;2023-04-16T10:27:43;10.20;99.90
2973;DHT22;1496;51.404;7.232;2023-04-16T10:30:11;10.20;83.90
2973;DHT22;1496;51.404;7.232;2023-04-16T10:32:38;10.30;99.90
2973;DHT22;1496;51.404;7.232;2023-04-16T10:35:06;10.40;83.20
2973;DHT22;1496;51.404;7.232;2023-04-16T10:37:35;10.40;8.10
2973;DHT22;1496;51.404;7.232;2023-04-16T10:40:21;10.60;15.60
2973;DHT22;1496;51.404;7.232;2023-04-16T10:42:58;10.60;1.00
2973;DHT22;1496;51.404;7.232;2023-04-16T10:45:29;10.80;99.90
2973;DHT22;1496;51.404;7.232;2023-04-16T10:47:57;10.90;99.90
2973;DHT22;1496;51.404;7.232;2023-04-16T10:50:23;10.90;99.90
2973;DHT22;1496;51.404;7.232;2023-04-16T10:53:23;10.90;99.90
2973;DHT22;1496;51.404;7.232;2023-04-16T10:58:36;10.90;99.90
2973;DHT22;1496;51.404;7.232;2023-04-16T11:01:12;10.90;99.90
2973;DHT22;1496;51.404;7.232;2023-04-16T11:03:43;10.90;99.90
2973;DHT22;1496;51.404;7.232;2023-04-16T11:06:14;10.80;99.90
2973;DHT22;1496;51.404;7.232;2023-04-16T11:08:45;10.90;99.90
2973;DHT22;1496;51.404;7.232;2023-04-16T11:11:13;11.00;99.90
2973;DHT22;1496;51.404;7.232;2023-04-16T11:13:43;11.00;99.90
2973;DHT22;1496;51.404;7.232;2023-04-16T11:16:15;11.00;99.90
2973;DHT22;1496;51.404;7.232;2023-04-16T11:18:45;11.10;95.00
2973;DHT22;1496;51.404;7.232;2023-04-16T11:21:12;11.20;96.30
2973;DHT22;1496;51.404;7.232;2023-04-16T11:23:48;11.40;99.80
2973;DHT22;1496;51.404;7.232;2023-04-16T11:26:26;11.30;75.90
2973;DHT22;1496;51.404;7.232;2023-04-16T11:28:54;11.20;61.30
2973;DHT22;1496;51.404;7.232;2023-04-16T11:31:22;11.10;63.60
2973;DHT22;1496;51.404;7.232;2023-04-16T11:33:50;11.10;60.40
2973;DHT22;1496;51.404;7.232;2023-04-16T11:36:16;11.10;71.20
2973;DHT22;1496;51.404;7.232;2023-04-16T11:38:42;11.20;61.40
2973;DHT22;1496;51.404;7.232;2023-04-16T11:41:09;11.20;63.80
2973;DHT22;1496;51.404;7.232;2023-04-16T11:43:36;11.30;52.30
2973;DHT22;1496;51.404;7.232;2023-04-16T11:46:04;11.40;37.30
2973;DHT22;1496;51.404;7.232;2023-04-16T11:48:51;11.50;32.80
2973;DHT22;1496;51.404;7.232;2023-04-16T11:51:18;11.70;35.20
2973;DHT22;1496;51.404;7.232;2023-04-16T11:53:50;11.80;34.30
2973;DHT22;1496;51.404;7.232;2023-04-16T11:56:29;11.80;30.20
2973;DHT22;1496;51.404;7.232;2023-04-16T11:59:09;11.60;25.20
2973;DHT22;1496;51.404;7.232;2023-04-16T12:01:38;11.50;28.50
2973;DHT22;1496;51.404;7.232;2023-04-16T12:04:06;11.50;27.20
2973;DHT22;1496;51.404;7.232;2023-04-16T12:06:33;11.40;27.50
2973;DHT22;1496;51.404;7.232;2023-04-16T12:09:24;11.40;31.40
2973;DHT22;1496;51.404;7.232;2023-04-16T12:11:51;11.30;46.70
2973;DHT22;1496;51.404;7.232;2023-04-16T12:14:19;11.20;55.70
2973;DHT22;1496;51.404;7.232;2023-04-16T12:16:47;11.20;51.50
2973;DHT22;1496;51.404;7.232;2023-04-16T12:19:13;11.20;44.30
2973;DHT22;1496;51.404;7.232;2023-04-16T12:21:45;11.20;35.90
2973;DHT22;1496;51.404;7.232;2023-04-16T12:24:14;11.20;38.90
2973;DHT22;1496;51.404;7.232;2023-04-16T12:26:43;11.20;45.80
2973;DHT22;1496;51.404;7.232;2023-04-16T12:29:15;11.30;53.70
2973;DHT22;1496;51.404;7.232;2023-04-16T12:31:42;11.30;44.90
2973;DHT22;1496;51.404;7.232;2023-04-16T12:34:12;11.30;55.50
2973;DHT22;1496;51.404;7.232;2023-04-16T12:36:41;11.40;56.50
2973;DHT22;1496;51.404;7.232;2023-04-16T12:39:08;11.40;59.50
2973;DHT22;1496;51.404;7.232;2023-04-16T12:41:40;11.40;56.10
2973;DHT22;1496;51.404;7.232;2023-04-16T12:44:17;11.40;46.30
2973;DHT22;1496;51.404;7.232;2023-04-16T12:46:45;11.50;41.80
2973;DHT22;1496;51.404;7.232;2023-04-16T12:49:12;11.50;42.00
2973;DHT22;1496;51.404;7.232;2023-04-16T12:51:40;11.60;37.90
2973;DHT22;1496;51.404;7.232;2023-04-16T12:54:07;11.60;39.70
2973;DHT22;1496;51.404;7.232;2023-04-16T12:56:34;11.60;34.80
2973;DHT22;1496;51.404;7.232;2023-04-16T12:59:03;11.60;33.20
2973;DHT22;1496;51.404;7.232;2023-04-16T13:01:31;11.70;37.40
2973;DHT22;1496;51.404;7.232;2023-04-16T13:03:57;11.70;45.10
2973;DHT22;1496;51.404;7.232;2023-04-16T13:06:25;11.90;33.30
2973;DHT22;1496;51.404;7.232;2023-04-16T13:08:54;12.00;30.10
2973;DHT22;1496;51.404;7.232;2023-04-16T13:11:22;12.30;32.90
2973;DHT22;1496;51.404;7.232;2023-04-16T13:13:48;12.50;25.50
2973;DHT22;1496;51.404;7.232;2023-04-16T13:16:16;12.60;20.10
2973;DHT22;1496;51.404;7.232;2023-04-16T13:18:45;12.60;12.10
2973;DHT22;1496;51.404;7.232;2023-04-16T13:21:11;12.50;7.90
2973;DHT22;1496;51.404;7.232;2023-04-16T13:23:38;12.50;7.40
2973;DHT22;1496;51.404;7.232;2023-04-16T13:26:06;12.40;7.70
2973;DHT22;1496;51.404;7.232;2023-04-16T13:28:33;12.30;7.70
2973;DHT22;1496;51.404;7.232;2023-04-16T13:31:01;12.20;8.40
2973;DHT22;1496;51.404;7.232;2023-04-16T13:33:28;12.20;8.00
2973;DHT22;1496;51.404;7.232;2023-04-16T13:35:56;12.20;12.90
2973;DHT22;1496;51.404;7.232;2023-04-16T13:38:22;12.30;11.20
2973;DHT22;1496;51.404;7.232;2023-04-16T13:40:50;12.40;8.80
2973;DHT22;1496;51.404;7.232;2023-04-16T13:43:19;12.50;5.50
2973;DHT22;1496;51.404;7.232;2023-04-16T13:45:48;12.50;4.30
2973;DHT22;1496;51.404;7.232;2023-04-16T13:48:16;12.60;1.00
2973;DHT22;1496;51.404;7.232;2023-04-16T13:50:43;12.60;1.00
2973;DHT22;1496;51.404;7.232;2023-04-16T13:53:10;12.50;1.00
2973;DHT22;1496;51.404;7.232;2023-04-16T13:55:36;12.50;1.00
2973;DHT22;1496;51.404;7.232;2023-04-16T13:58:04;12.50;1.00
2973;DHT22;1496;51.404;7.232;2023-04-16T14:00:34;12.40;1.00
2973;DHT22;1496;51.404;7.232;2023-04-16T14:03:01;12.40;1.00
2973;DHT22;1496;51.404;7.232;2023-04-16T14:05:34;12.40;2.50
2973;DHT22;1496;51.404;7.232;2023-04-16T14:08:04;12.50;1.00
2973;DHT22;1496;51.404;7.232;2023-04-16T14:10:31;12.50;1.00
2973;DHT22;1496;51.404;7.232;2023-04-16T14:12:58;12.60;1.00
2973;DHT22;1496;51.404;7.232;2023-04-16T14:15:26;12.60;1.00
2973;DHT22;1496;51.404;7.232;2023-04-16T14:17:55;12.60;2.30
2973;DHT22;1496;51.404;7.232;2023-04-16T14:20:23;12.50;1.30
2973;DHT22;1496;51.404;7.232;2023-04-16T14:22:51;12.40;1.90
2973;DHT22;1496;51.404;7.232;2023-04-16T14:25:18;12.30;1.00
2973;DHT22;1496;51.404;7.232;2023-04-16T14:27:45;12.40;2.90
2973;DHT22;1496;51.404;7.232;2023-04-16T14:30:12;12.40;1.00
2973;DHT22;1496;51.404;7.232;2023-04-16T14:32:42;12.40;1.00
2973;DHT22;1496;51.404;7.232;2023-04-16T14:35:08;12.30;1.00
2973;DHT22;1496;51.404;7.232;2023-04-16T14:37:35;12.40;5.80
2973;DHT22;1496;51.404;7.232;2023-04-16T14:40:04;12.40;4.60
2973;DHT22;1496;51.404;7.232;2023-04-16T14:42:33;12.30;8.90
2973;DHT22;1496;51.404;7.232;2023-04-16T14:45:02;12.30;3.70
2973;DHT22;1496;51.404;7.232;2023-04-16T14:47:35;12.40;7.40
2973;DHT22;1496;51.404;7.232;2023-04-16T14:50:04;12.30;2.60
2973;DHT22;1496;51.404;7.232;2023-04-16T14:52:32;12.30;5.30
2973;DHT22;1496;51.404;7.232;2023-04-16T14:54:59;12.40;1.00
2973;DHT22;1496;51.404;7.232;2023-04-16T14:57:26;12.40;1.00
2973;DHT22;1496;51.404;7.232;2023-04-16T14:59:54;12.50;1.00
2973;DHT22;1496;51.404;7.232;2023-04-16T15:02:21;12.50;1.00
2973;DHT22;1496;51.404;7.232;2023-04-16T15:04:48;12.60;1.00
2973;DHT22;1496;51.404;7.232;2023-04-16T15:07:16;12.60;1.00
2973;DHT22;1496;51.404;7.232;2023-04-16T15:09:42;12.60;1.00
2973;DHT22;1496;51.404;7.232;2023-04-16T15:12:09;12.60;1.00
2973;DHT22;1496;51.404;7.232;2023-04-16T15:14:37;12.60;1.00
2973;DHT22;1496;51.404;7.232;2023-04-16T15:17:04;12.60;1.00
2973;DHT22;1496;51.404;7.232;2023-04-16T15:19:32;12.60;1.00
2973;DHT22;1496;51.404;7.232;2023-04-16T15:21:59;12.60;1.00
2973;DHT22;1496;51.404;7.232;2023-04-16T15:24:27;12.60;1.00
2973;DHT22;1496;51.404;7.232;2023-04-16T15:26:54;12.60;1.00
2973;DHT22;1496;51.404;7.232;2023-04-16T15:29:21;12.70;1.00
2973;DHT22;1496;51.404;7.232;2023-04-16T15:31:47;12.70;1.00
2973;DHT22;1496;51.404;7.232;2023-04-16T15:34:14;12.60;1.00
2973;DHT22;1496;51.404;7.232;2023-04-16T15:36:43;12.60;1.00
2973;DHT22;1496;51.404;7.232;2023-04-16T15:39:11;12.70;1.00
2973;DHT22;1496;51.404;7.232;2023-04-16T15:41:38;12.70;1.00
2973;DHT22;1496;51.404;7.232;2023-04-16T15:44:06;12.70;1.00
2973;DHT22;1496;51.404;7.232;2023-04-16T15:46:34;12.60;1.00
2973;DHT22;1496;51.404;7.232;2023-04-16T15:49:03;12.60;1.00
2973;DHT22;1496;51.404;7.232;2023-04-16T15:51:30;12.60;1.00
2973;DHT22;1496;51.404;7.232;2023-04-16T15:53:57;12.60;1.00
2973;DHT22;1496;51.404;7.232;2023-04-16T15:56:24;12.60;1.00
2973;DHT22;1496;51.404;7.232;2023-04-16T15:58:53;12.50;1.00
2973;DHT22;1496;51.404;7.232;2023-04-16T16:01:21;12.50;1.00
2973;DHT22;1496;51.404;7.232;2023-04-16T16:03:47;12.50;1.00
2973;DHT22;1496;51.404;7.232;2023-04-16T16:06:15;12.50;1.00
2973;DHT22;1496;51.404;7.232;2023-04-16T16:08:43;12.60;1.00
2973;DHT22;1496;51.404;7.232;2023-04-16T16:11:10;12.60;1.00
2973;DHT22;1496;51.404;7.232;2023-04-16T16:13:38;12.60;1.00
2973;DHT22;1496;51.404;7.232;2023-04-16T16:16:04;12.60;1.00
2973;DHT22;1496;51.404;7.232;2023-04-16T16:18:34;12.60;1.00
2973;DHT22;1496;51.404;7.232;2023-04-16T16:21:02;12.70;1.00
2973;DHT22;1496;51.404;7.232;2023-04-16T16:23:31;12.70;1.00
2973;DHT22;1496;51.404;7.232;2023-04-16T16:25:58;12.70;1.00